This is the latest recevied weather packets stored in our database for station/object F5ZYU-10. If no packets are shown the sender has not sent any weather packets the latest 10 day(s).
| Time | Temp. | Humidity | Pressure | Rain* | Wind** | Luminosity | Snow |
|---|---|---|---|---|---|---|---|
| 1777707050 | 13.89° C | 73% | 1026.8 hPa | - | - | - | - |
| 1777706149 | 13.89° C | 73% | 1027 hPa | - | - | - | - |
| 1777705249 | 13.33° C | 74% | 1027 hPa | - | - | - | - |
| 1777704349 | 13.33° C | 74% | 1027 hPa | - | - | - | - |
| 1777703449 | 13.33° C | 74% | 1027 hPa | - | - | - | - |
| 1777702549 | 13.33° C | 74% | 1026.9 hPa | - | - | - | - |
| 1777701649 | 13.33° C | 75% | 1027 hPa | - | - | - | - |
| 1777700749 | 13.33° C | 75% | 1027 hPa | - | - | - | - |
| 1777699849 | 13.33° C | 76% | 1027 hPa | - | - | - | - |
| 1777698948 | 12.78° C | 76% | 1026.3 hPa | - | - | - | - |
| 1777698048 | 13.33° C | 74% | 1026.8 hPa | - | - | - | - |
| 1777697148 | 13.33° C | 75% | 1026.9 hPa | - | - | - | - |
| 1777696248 | 13.33° C | 76% | 1026.9 hPa | - | - | - | - |
| 1777695348 | 13.33° C | 77% | 1026.9 hPa | - | - | - | - |
| 1777694448 | 13.33° C | 76% | 1026.9 hPa | - | - | - | - |
| 1777693547 | 13.89° C | 77% | 1026.8 hPa | - | - | - | - |
| 1777692648 | 13.89° C | 76% | 1026.9 hPa | - | - | - | - |
| 1777691747 | 13.89° C | 76% | 1027 hPa | - | - | - | - |
| 1777690847 | 13.89° C | 77% | 1026.9 hPa | - | - | - | - |
| 1777689947 | 13.89° C | 77% | 1026.9 hPa | - | - | - | - |
| 1777689047 | 13.89° C | 76% | 1027.1 hPa | - | - | - | - |
| 1777688147 | 13.89° C | 77% | 1027.1 hPa | - | - | - | - |
| 1777687249 | 13.89° C | 77% | 1027.1 hPa | - | - | - | - |
| 1777686349 | 13.89° C | 77% | 1027.4 hPa | - | - | - | - |
| 1777685449 | 14.44° C | 76% | 1027.5 hPa | - | - | - | - |
* Rain since midnight (hover to see other rain measurements)
** Current wind speed in m/s (hover to see current wind gust speed)